Time;durP1;ratioP1;P1;durP2;ratioP2;P2;SDS_P1;SDS_P2;PMS_P1;PMS_P2;Temp;Humidity;BMP_temperature;BMP_pressure;BME280_temperature;BME280_humidity;BME280_pressure;Samples;Min_cycle;Max_cycle;Signal;HPM_P1;HPM_P2
2023/07/04 00:01:46;;;;;;;4.45;1.25;;;;;;;21.93;46.81;100855.66;5031619;28;20492;-87
2023/07/04 00:04:12;;;;;;;1.75;1.27;;;;;;;22.02;46.72;100867.72;5032110;28;20195;-88
2023/07/04 00:06:39;;;;;;;3.17;1.63;;;;;;;22.03;47.12;100879.16;5047584;28;20033;-87
2023/07/04 00:24:05;;;;;;;1.77;1.13;;;;;;;21.92;46.93;100864.63;5027832;28;20228;-87
2023/07/04 00:26:31;;;;;;;1.90;1.08;;;;;;;21.87;47.31;100868.84;5002689;28;20038;-87
2023/07/04 00:28:57;;;;;;;1.73;1.40;;;;;;;21.93;46.97;100879.50;5018826;28;20045;-86
2023/07/04 00:31:23;;;;;;;1.90;1.40;;;;;;;21.93;47.13;100890.13;5017986;28;20052;-86
2023/07/04 00:33:50;;;;;;;1.00;0.90;;;;;;;21.92;47.38;100891.13;5016918;28;20049;-87
2023/07/04 00:36:17;;;;;;;1.88;0.90;;;;;;;21.93;46.96;100891.94;5021738;28;20141;-87
2023/07/04 00:38:45;;;;;;;1.40;0.98;;;;;;;21.91;47.21;100881.53;5031649;28;20052;-86
2023/07/04 00:41:13;;;;;;;2.58;1.33;;;;;;;21.89;47.26;100886.19;5017531;28;20495;-87
2023/07/04 00:43:46;;;;;;;1.05;0.80;;;;;;;21.88;46.98;100875.78;5032131;28;20085;-87
2023/07/04 00:46:15;;;;;;;2.08;1.13;;;;;;;21.89;47.39;100890.66;5016349;28;20033;-87
2023/07/04 00:49:00;;;;;;;1.17;0.93;;;;;;;21.87;47.34;100890.03;5002510;28;20049;-87
2023/07/04 00:52:07;;;;;;;2.15;0.70;;;;;;;21.89;47.03;100888.84;5032031;28;20585;-87
2023/07/04 00:54:40;;;;;;;2.45;1.02;;;;;;;21.78;47.42;100878.78;5033013;28;20048;-87
2023/07/04 00:57:07;;;;;;;2.60;1.40;;;;;;;21.85;47.34;100898.19;5014884;28;20507;-87
2023/07/04 00:59:37;;;;;;;1.83;1.35;;;;;;;21.78;47.19;100891.22;5033081;28;21500;-87
2023/07/04 01:02:04;;;;;;;2.25;1.05;;;;;;;21.83;47.07;100905.53;5034719;28;20061;-87
2023/07/04 01:04:32;;;;;;;1.55;1.13;;;;;;;21.86;47.15;100905.13;5051236;28;20042;-86
2023/07/04 01:07:17;;;;;;;2.78;1.30;;;;;;;21.86;47.43;100913.09;5037390;28;20037;-87
2023/07/04 01:09:50;;;;;;;2.42;1.10;;;;;;;21.73;47.12;100891.78;5028592;28;20034;-87
2023/07/04 01:12:18;;;;;;;1.77;1.23;;;;;;;21.74;47.36;100896.06;5030664;28;20042;-89
2023/07/04 01:14:43;;;;;;;1.08;0.80;;;;;;;21.75;47.17;100896.91;5048095;28;20041;-86
2023/07/04 01:17:09;;;;;;;2.70;0.90;;;;;;;21.81;47.17;100899.59;5036948;28;20041;-88
2023/07/04 01:19:38;;;;;;;1.67;1.25;;;;;;;21.85;47.06;100905.31;5027009;28;20656;-87
2023/07/04 01:22:21;;;;;;;1.83;0.90;;;;;;;21.65;47.19;100884.78;5033485;28;20038;-87
2023/07/04 01:25:07;;;;;;;1.33;1.00;;;;;;;21.82;47.46;100908.38;5036215;28;20511;-88
2023/07/04 01:27:35;;;;;;;1.45;1.08;;;;;;;21.76;47.24;100898.53;5030744;28;20045;-87
2023/07/04 01:30:04;;;;;;;1.38;0.95;;;;;;;21.81;47.50;100902.25;5032544;28;20091;-87
2023/07/04 01:32:31;;;;;;;3.15;1.27;;;;;;;21.81;47.35;100909.38;5030574;28;20064;-87
2023/07/04 01:35:00;;;;;;;1.92;1.00;;;;;;;21.78;47.39;100907.94;5016710;28;20041;-87
2023/07/04 01:37:30;;;;;;;1.65;1.15;;;;;;;21.80;47.35;100911.22;5048242;28;20487;-87
2023/07/04 01:40:00;;;;;;;1.23;0.88;;;;;;;21.79;47.42;100908.75;5026702;28;20068;-86
2023/07/04 01:42:31;;;;;;;1.95;1.10;;;;;;;21.75;47.44;100899.53;5053134;28;20061;-87
2023/07/04 01:45:05;;;;;;;2.90;1.10;;;;;;;21.78;47.45;100907.13;5034208;28;20069;-86
2023/07/04 01:47:33;;;;;;;2.30;0.93;;;;;;;21.75;47.22;100896.91;5049189;28;20079;-86
2023/07/04 01:49:59;;;;;;;1.70;0.85;;;;;;;21.76;47.63;100907.31;5015676;28;20046;-86
2023/07/04 01:52:26;;;;;;;1.42;1.17;;;;;;;21.70;47.38;100902.75;5000458;28;20026;-85
2023/07/04 01:54:54;;;;;;;2.30;1.10;;;;;;;21.76;47.40;100901.19;5030345;28;20029;-86
2023/07/04 01:57:20;;;;;;;3.00;1.20;;;;;;;21.75;47.62;100891.59;5037294;28;20040;-85
2023/07/04 01:59:46;;;;;;;2.97;1.17;;;;;;;21.70;47.29;100886.84;5036532;28;20045;-86
2023/07/04 02:02:12;;;;;;;1.75;0.75;;;;;;;21.72;47.27;100887.47;5048179;28;20482;-86
2023/07/04 02:04:37;;;;;;;1.33;1.08;;;;;;;21.74;47.42;100895.25;5031386;28;20078;-86
2023/07/04 02:07:04;;;;;;;1.42;0.73;;;;;;;21.75;47.33;100894.25;5046659;28;20037;-87
2023/07/04 02:09:29;;;;;;;1.15;1.05;;;;;;;21.70;47.33;100889.50;5032435;28;20451;-87
2023/07/04 02:11:55;;;;;;;2.65;1.00;;;;;;;21.69;47.61;100890.50;5030965;28;20061;-86
2023/07/04 02:14:23;;;;;;;2.95;1.50;;;;;;;21.64;47.46;100885.78;5052976;28;20044;-87
2023/07/04 02:16:50;;;;;;;1.70;0.98;;;;;;;21.62;47.63;100874.56;5031351;28;20052;-87
2023/07/04 02:19:16;;;;;;;2.20;1.25;;;;;;;21.66;47.40;100883.75;5027597;28;20033;-89
2023/07/04 02:21:41;;;;;;;1.75;1.10;;;;;;;21.71;47.36;100894.59;5044137;28;20053;-87
2023/07/04 02:24:07;;;;;;;0.70;0.70;;;;;;;21.70;47.59;100895.59;5031457;28;20515;-87
2023/07/04 02:26:34;;;;;;;2.40;1.20;;;;;;;21.66;47.71;100888.25;5010505;28;20514;-87
2023/07/04 02:29:00;;;;;;;1.10;0.90;;;;;;;21.71;47.65;100899.09;5046477;28;20056;-87
2023/07/04 02:31:26;;;;;;;2.60;1.25;;;;;;;21.63;47.73;100883.31;5033028;28;20041;-87
2023/07/04 02:33:53;;;;;;;3.17;1.10;;;;;;;21.59;47.27;100877.59;5028828;28;20038;-87
2023/07/04 02:36:19;;;;;;;1.65;0.77;;;;;;;21.68;47.34;100892.34;5031044;28;20367;-87
2023/07/04 02:38:45;;;;;;;1.80;0.80;;;;;;;21.68;47.50;100900.28;5029146;28;20052;-87
2023/07/04 02:41:12;;;;;;;1.48;0.88;;;;;;;21.69;47.25;100890.50;5016333;28;20037;-87
2023/07/04 02:43:39;;;;;;;1.08;0.80;;;;;;;21.66;47.61;100891.72;5049263;28;20037;-87
2023/07/04 02:46:06;;;;;;;1.80;1.00;;;;;;;21.67;47.65;100897.81;5018044;28;20064;-87
2023/07/04 02:48:33;;;;;;;2.25;1.20;;;;;;;21.66;47.50;100904.97;5037895;28;20060;-87
2023/07/04 02:51:00;;;;;;;2.88;1.08;;;;;;;21.61;47.49;100904.72;5030827;28;20041;-87
2023/07/04 02:53:27;;;;;;;2.45;1.20;;;;;;;21.67;47.72;100913.72;5016260;28;20033;-87
2023/07/04 02:55:54;;;;;;;0.98;0.88;;;;;;;21.64;47.34;100895.56;5013798;28;20037;-87
2023/07/04 02:58:22;;;;;;;1.85;1.20;;;;;;;21.65;47.59;100894.56;5033511;28;20037;-87
2023/07/04 03:00:49;;;;;;;2.67;1.20;;;;;;;21.62;47.53;100906.34;5046286;28;20699;-89
2023/07/04 03:03:17;;;;;;;1.17;1.05;;;;;;;21.61;47.57;100896.75;5051576;28;20039;-87
2023/07/04 03:05:44;;;;;;;2.40;1.13;;;;;;;21.63;47.44;100899.22;5049593;28;20048;-86
2023/07/04 03:08:09;;;;;;;1.13;1.00;;;;;;;21.63;47.39;100897.41;5050319;28;20056;-86
2023/07/04 03:10:36;;;;;;;2.53;1.10;;;;;;;21.57;47.72;100884.09;5017746;28;20035;-86
2023/07/04 03:13:02;;;;;;;1.15;1.00;;;;;;;21.59;47.45;100900.63;5033379;28;20045;-86
2023/07/04 03:15:33;;;;;;;1.42;1.00;;;;;;;21.56;47.67;100891.22;5033657;28;20045;-86
2023/07/04 03:17:58;;;;;;;1.55;0.85;;;;;;;21.63;47.65;100902.69;5017102;28;20439;-86
2023/07/04 03:20:25;;;;;;;1.92;1.05;;;;;;;21.63;47.38;100912.47;5016479;28;20037;-86
2023/07/04 03:22:53;;;;;;;1.55;0.90;;;;;;;21.61;47.69;100914.50;5030576;28;20064;-86
2023/07/04 03:25:19;;;;;;;1.02;0.95;;;;;;;21.60;47.69;100902.25;5030096;28;20123;-87
2023/07/04 03:27:48;;;;;;;1.75;1.15;;;;;;;21.56;47.61;100895.69;5022853;28;20053;-86
2023/07/04 03:30:17;;;;;;;2.35;1.13;;;;;;;21.61;47.57;100903.91;5039723;28;20045;-87
2023/07/04 03:32:46;;;;;;;1.85;1.30;;;;;;;21.61;47.42;100909.19;5033371;28;20034;-86
2023/07/04 03:35:11;;;;;;;1.67;1.10;;;;;;;21.57;47.79;100903.47;5034464;28;20033;-86
2023/07/04 03:37:40;;;;;;;2.45;1.13;;;;;;;21.56;47.40;100901.00;5033590;28;20499;-86
2023/07/04 03:40:10;;;;;;;2.30;1.10;;;;;;;21.56;47.59;100899.16;5019528;28;20052;-86
2023/07/04 03:42:38;;;;;;;1.67;1.15;;;;;;;21.59;47.63;100912.03;5041388;28;20049;-87
2023/07/04 03:45:05;;;;;;;2.00;1.13;;;;;;;21.61;47.66;100911.84;5051617;28;20061;-86
2023/07/04 03:47:31;;;;;;;1.92;1.27;;;;;;;21.63;47.58;100910.66;5024532;28;20025;-87
2023/07/04 03:49:58;;;;;;;1.30;1.08;;;;;;;21.62;47.58;100909.00;5031000;28;20042;-85
2023/07/04 03:52:24;;;;;;;2.30;1.30;;;;;;;21.58;47.71;100909.56;5037021;28;20414;-87
2023/07/04 03:54:50;;;;;;;1.67;1.20;;;;;;;21.56;47.90;100898.34;5053135;28;20240;-87
2023/07/04 03:57:16;;;;;;;1.80;1.10;;;;;;;21.53;47.69;100894.22;5037473;28;20045;-87
2023/07/04 03:59:41;;;;;;;1.00;0.95;;;;;;;21.60;47.84;100910.22;5029901;28;20041;-86
2023/07/04 04:02:07;;;;;;;2.28;1.17;;;;;;;21.54;47.53;100903.00;5033182;28;20053;-87
2023/07/04 04:04:39;;;;;;;2.38;1.10;;;;;;;21.54;47.43;100903.81;5037304;28;20041;-88
2023/07/04 04:07:09;;;;;;;2.28;1.30;;;;;;;21.55;47.41;100908.13;5002784;28;20065;-87
2023/07/04 04:09:36;;;;;;;1.63;1.10;;;;;;;21.55;47.41;100923.22;5045501;28;20034;-88
2023/07/04 04:12:04;;;;;;;2.47;1.33;;;;;;;21.57;47.47;100913.25;5033681;28;20826;-88
2023/07/04 04:14:30;;;;;;;2.47;1.50;;;;;;;21.59;47.65;100916.53;5050160;28;20124;-87
2023/07/04 04:16:57;;;;;;;2.17;1.10;;;;;;;21.51;47.51;100911.31;5029193;28;20125;-87
2023/07/04 04:19:24;;;;;;;2.60;1.15;;;;;;;21.57;47.69;100911.41;5030776;28;20049;-87
2023/07/04 04:21:49;;;;;;;2.47;1.30;;;;;;;21.54;47.46;100903.81;5033910;28;20037;-88
2023/07/04 04:24:15;;;;;;;2.25;1.05;;;;;;;21.57;47.42;100908.75;5015512;28;20448;-88
2023/07/04 04:26:43;;;;;;;1.80;1.00;;;;;;;21.52;47.73;100905.84;5016276;28;20034;-88
2023/07/04 04:29:09;;;;;;;2.13;1.15;;;;;;;21.48;47.76;100909.06;5030939;28;20055;-89
2023/07/04 04:31:37;;;;;;;1.65;1.20;;;;;;;21.53;47.80;100922.56;5031320;28;20069;-87
2023/07/04 04:34:06;;;;;;;1.60;1.20;;;;;;;21.57;47.79;100922.00;5032421;28;20041;-88
2023/07/04 04:36:33;;;;;;;1.17;1.10;;;;;;;21.57;47.39;100935.25;5032679;28;20038;-88
2023/07/04 04:38:59;;;;;;;2.42;1.40;;;;;;;21.58;47.73;100939.56;5031558;28;20046;-87
2023/07/04 04:41:26;;;;;;;1.20;1.10;;;;;;;21.55;47.60;100926.69;5023144;28;20521;-88
2023/07/04 04:43:53;;;;;;;2.35;1.20;;;;;;;21.53;47.54;100920.72;5032271;28;20041;-88
2023/07/04 04:46:18;;;;;;;2.10;0.98;;;;;;;21.55;47.61;100926.69;5030253;28;20092;-88
2023/07/04 04:48:44;;;;;;;2.75;1.42;;;;;;;21.57;47.64;100927.31;5029518;28;20034;-87
2023/07/04 04:51:12;;;;;;;1.27;1.17;;;;;;;21.59;47.70;100929.78;5032576;28;20045;-87
2023/07/04 04:53:41;;;;;;;1.33;1.08;;;;;;;21.59;47.33;100935.88;5032558;28;20408;-87
2023/07/04 04:56:08;;;;;;;1.50;1.40;;;;;;;21.58;47.55;100938.72;5027887;28;20030;-87
2023/07/04 04:58:35;;;;;;;1.50;1.05;;;;;;;21.56;47.54;100930.97;5029371;28;20041;-86
2023/07/04 05:01:11;;;;;;;3.17;1.40;;;;;;;21.50;47.49;100913.16;5030348;28;20041;-87
2023/07/04 05:03:37;;;;;;;1.35;0.93;;;;;;;21.55;47.55;100928.50;5027940;28;20037;-88
2023/07/04 05:06:03;;;;;;;1.40;1.30;;;;;;;21.57;47.33;100937.91;5028615;28;20068;-87
2023/07/04 05:08:28;;;;;;;6.45;1.60;;;;;;;21.46;47.39;100911.91;5046771;28;20603;-87
2023/07/04 05:11:13;;;;;;;2.72;1.38;;;;;;;21.50;47.73;100928.22;5031802;28;20049;-88
2023/07/04 05:13:40;;;;;;;1.50;1.20;;;;;;;21.55;47.51;100939.09;5027956;28;20101;-89
2023/07/04 05:16:09;;;;;;;2.80;1.27;;;;;;;21.58;47.63;100930.78;5028632;28;20057;-86
2023/07/04 05:18:36;;;;;;;2.80;1.30;;;;;;;21.57;47.68;100937.09;5032152;28;20132;-87
2023/07/04 05:21:04;;;;;;;1.38;0.95;;;;;;;21.59;47.46;100935.88;5029514;28;20052;-87
2023/07/04 05:23:30;;;;;;;1.55;1.20;;;;;;;21.61;47.46;100941.81;5051070;28;20267;-88
2023/07/04 05:26:11;;;;;;;2.10;1.10;;;;;;;21.55;47.34;100923.22;5031440;28;20040;-87
2023/07/04 05:28:37;;;;;;;2.38;1.30;;;;;;;21.64;47.62;100935.31;5032435;28;20036;-87
2023/07/04 05:31:09;;;;;;;3.40;1.42;;;;;;;21.61;47.57;100928.56;5050858;28;20036;-87
2023/07/04 05:33:35;;;;;;;1.63;1.33;;;;;;;21.63;47.44;100938.97;5030540;28;20040;-87
2023/07/04 05:36:06;;;;;;;1.75;1.15;;;;;;;21.63;47.33;100936.31;5046392;28;20041;-86
2023/07/04 05:38:32;;;;;;;2.33;1.23;;;;;;;21.63;47.26;100944.28;5030210;28;20044;-87
2023/07/04 05:40:57;;;;;;;3.38;1.15;;;;;;;21.65;47.39;100943.06;5030954;28;20037;-89
2023/07/04 05:43:23;;;;;;;3.22;1.67;;;;;;;21.69;47.36;100948.81;5031468;28;20526;-87
2023/07/04 05:45:50;;;;;;;2.05;1.10;;;;;;;21.55;47.31;100934.63;5031726;28;20037;-86
2023/07/04 05:48:16;;;;;;;2.88;1.52;;;;;;;21.66;47.32;100946.53;5029464;28;20597;-87
2023/07/04 05:50:59;;;;;;;4.10;1.48;;;;;;;21.56;47.55;100933.63;5033044;28;20034;-87
2023/07/04 05:53:28;;;;;;;3.10;1.67;;;;;;;21.61;47.64;100944.47;5031231;28;20037;-87
2023/07/04 05:56:08;;;;;;;1.55;1.35;;;;;;;21.66;47.31;100949.19;5018089;28;20061;-87
2023/07/04 05:58:36;;;;;;;1.95;1.38;;;;;;;21.61;47.33;100941.81;5041585;28;20048;-86
2023/07/04 06:01:07;;;;;;;0.90;0.90;;;;;;;21.62;47.51;100946.09;5026606;28;20038;-88
2023/07/04 06:03:33;;;;;;;1.95;1.17;;;;;;;21.69;47.54;100962.88;5029140;28;20033;-87
2023/07/04 06:06:01;;;;;;;1.17;1.02;;;;;;;21.66;47.17;100963.25;5030656;28;20344;-87
2023/07/04 06:08:26;;;;;;;1.58;1.10;;;;;;;21.70;47.15;100966.34;5032724;28;20124;-86
2023/07/04 06:11:05;;;;;;;3.13;1.30;;;;;;;21.70;47.36;100969.00;5023543;28;20045;-85
2023/07/04 06:13:31;;;;;;;1.23;1.13;;;;;;;21.69;47.31;100962.88;5045058;28;20050;-85
2023/07/04 06:15:59;;;;;;;1.83;1.42;;;;;;;21.69;47.44;100972.66;5015372;28;20044;-85
2023/07/04 06:18:24;;;;;;;1.52;1.23;;;;;;;21.73;47.23;100970.47;5044357;28;20041;-84
2023/07/04 06:20:51;;;;;;;2.53;1.33;;;;;;;21.71;47.15;100973.28;5029374;28;20048;-86
2023/07/04 06:23:20;;;;;;;1.92;1.40;;;;;;;21.68;47.02;100971.84;5025652;28;20313;-84
2023/07/04 06:25:46;;;;;;;1.73;0.93;;;;;;;21.69;47.24;100968.19;5024739;28;20514;-84
2023/07/04 06:28:12;;;;;;;1.38;1.20;;;;;;;21.76;47.26;100981.53;5028643;28;20088;-85
2023/07/04 06:30:38;;;;;;;2.40;1.33;;;;;;;21.74;47.25;100974.78;5035588;28;20041;-83
2023/07/04 06:33:04;;;;;;;3.13;1.23;;;;;;;21.79;47.06;100975.84;5034539;28;22023;-83
2023/07/04 06:35:30;;;;;;;1.80;1.33;;;;;;;21.67;47.33;100966.72;5033066;28;20046;-83
2023/07/04 06:37:57;;;;;;;3.80;1.23;;;;;;;21.79;47.09;100986.44;5034786;28;20374;-84
2023/07/04 06:40:23;;;;;;;2.38;1.48;;;;;;;21.75;47.12;100982.53;5034021;28;20038;-85
2023/07/04 06:42:48;;;;;;;3.03;1.40;;;;;;;21.70;47.15;100980.44;5053824;28;20042;-83
2023/07/04 06:45:15;;;;;;;1.52;1.35;;;;;;;21.80;47.04;100993.38;5048602;28;20783;-86
2023/07/04 06:47:40;;;;;;;3.15;1.50;;;;;;;21.80;46.83;100995.22;5031155;28;20045;-85
2023/07/04 06:50:06;;;;;;;2.38;1.25;;;;;;;21.83;47.07;100990.34;5032403;28;20052;-86
2023/07/04 06:52:35;;;;;;;2.30;1.15;;;;;;;21.81;47.15;100996.84;5033548;28;20045;-81
2023/07/04 06:55:00;;;;;;;1.25;1.10;;;;;;;21.83;46.91;101000.94;5016452;28;20038;-83
2023/07/04 06:57:26;;;;;;;2.08;1.25;;;;;;;21.85;47.22;101012.19;5035615;28;20087;-83
2023/07/04 06:59:51;;;;;;;4.20;1.50;;;;;;;21.84;46.84;101004.44;5031093;28;20038;-84
2023/07/04 07:02:17;;;;;;;2.35;1.50;;;;;;;21.83;46.84;101013.38;5035272;28;20041;-84
2023/07/04 07:04:43;;;;;;;2.00;1.10;;;;;;;21.80;46.95;101003.16;5033415;28;20577;-83
2023/07/04 07:07:10;;;;;;;2.38;1.30;;;;;;;21.87;46.95;101014.66;5032173;28;20037;-83
2023/07/04 07:09:41;;;;;;;4.10;1.10;;;;;;;21.87;46.80;101022.59;5030837;28;20041;-85
2023/07/04 07:12:09;;;;;;;3.70;1.60;;;;;;;21.87;46.73;101018.13;5035089;28;20488;-85
2023/07/04 07:14:35;;;;;;;1.30;1.20;;;;;;;21.81;47.01;101012.75;5034907;28;20053;-84
2023/07/04 07:17:02;;;;;;;3.72;1.25;;;;;;;21.90;47.16;101023.06;5046025;28;20045;-85
2023/07/04 07:19:28;;;;;;;3.00;1.30;;;;;;;21.84;46.90;101015.03;5032141;28;20041;-83
2023/07/04 07:21:54;;;;;;;3.67;1.52;;;;;;;21.89;47.08;101029.34;5035098;28;20067;-84
2023/07/04 07:24:19;;;;;;;1.88;1.30;;;;;;;21.89;47.07;101034.66;5046825;28;20046;-84
2023/07/04 07:26:45;;;;;;;1.45;1.20;;;;;;;21.82;46.90;101017.88;5034279;28;20403;-84
2023/07/04 07:29:10;;;;;;;3.30;1.05;;;;;;;21.83;47.06;101016.84;5035373;28;20040;-85
2023/07/04 07:31:36;;;;;;;2.10;1.20;;;;;;;21.87;46.92;101015.47;5033499;28;20041;-84
2023/07/04 07:34:03;;;;;;;2.47;1.33;;;;;;;21.84;47.19;101015.03;5030429;28;20045;-84
2023/07/04 07:36:37;;;;;;;1.25;1.15;;;;;;;21.93;47.15;101029.81;5024715;28;20049;-85
2023/07/04 07:39:05;;;;;;;2.13;1.20;;;;;;;21.92;47.12;101034.31;5027750;28;20136;-82
2023/07/04 07:41:36;;;;;;;2.60;1.45;;;;;;;21.93;47.04;101033.28;5029831;28;20297;-84
2023/07/04 07:44:06;;;;;;;1.55;1.00;;;;;;;21.92;46.71;101025.53;5030439;28;20056;-84
2023/07/04 07:46:32;;;;;;;2.00;1.13;;;;;;;21.94;46.74;101037.59;5032254;28;20175;-84
2023/07/04 07:48:58;;;;;;;2.55;0.90;;;;;;;21.95;47.02;101044.53;5033311;28;20037;-84
2023/07/04 07:51:24;;;;;;;1.90;1.20;;;;;;;21.93;46.78;101046.56;5031425;28;20025;-84
2023/07/04 07:53:53;;;;;;;2.20;1.40;;;;;;;21.95;46.99;101054.31;5031156;28;20046;-83
2023/07/04 07:56:20;;;;;;;3.03;1.33;;;;;;;21.96;46.76;101051.47;5013968;28;20041;-85
2023/07/04 07:58:46;;;;;;;3.58;1.42;;;;;;;21.94;46.76;101045.53;5033462;28;20764;-84
2023/07/04 08:01:24;;;;;;;4.00;1.40;;;;;;;21.80;46.70;101022.53;5032041;28;20045;-83
2023/07/04 08:03:50;;;;;;;2.20;1.25;;;;;;;21.96;46.65;101050.66;5034145;28;20037;-84
2023/07/04 08:06:27;;;;;;;2.75;1.20;;;;;;;21.93;46.97;101043.06;5032030;28;20038;-84
2023/07/04 08:08:54;;;;;;;1.20;1.00;;;;;;;21.97;46.90;101049.63;5025662;28;20033;-83
2023/07/04 08:11:20;;;;;;;2.08;1.02;;;;;;;21.93;46.77;101046.56;5031466;28;20101;-84
2023/07/04 08:13:46;;;;;;;1.50;1.30;;;;;;;21.97;46.74;101066.38;5034448;28;20048;-84
2023/07/04 08:16:20;;;;;;;1.27;1.10;;;;;;;21.93;47.00;101051.03;5037632;28;20227;-84
2023/07/04 08:18:47;;;;;;;4.07;1.17;;;;;;;22.12;46.40;101058.41;5011058;28;20449;-76
2023/07/04 08:21:14;;;;;;;2.63;1.92;;;;;;;22.27;46.50;101051.19;5000087;28;20231;-82
2023/07/04 08:23:40;;;;;;;3.28;1.45;;;;;;;22.42;46.36;101061.72;5029587;28;21098;-83
2023/07/04 08:26:06;;;;;;;1.90;1.30;;;;;;;22.51;46.17;101060.56;5037552;28;20045;-81
2023/07/04 08:28:32;;;;;;;4.10;1.17;;;;;;;22.60;45.81;101067.38;5033407;28;20037;-85
2023/07/04 08:31:05;;;;;;;4.03;1.17;;;;;;;22.60;46.06;101056.75;5031310;28;20037;-87
2023/07/04 08:33:31;;;;;;;2.67;1.17;;;;;;;22.65;45.89;101045.59;5032876;28;20128;-87
2023/07/04 08:35:59;;;;;;;1.60;1.02;;;;;;;22.80;45.81;101062.25;5004179;28;20033;-84
2023/07/04 08:38:25;;;;;;;2.78;1.25;;;;;;;22.85;45.98;101067.00;5033316;28;20087;-86
2023/07/04 08:40:51;;;;;;;1.75;0.98;;;;;;;22.89;45.71;101071.72;5001861;28;20049;-86
2023/07/04 08:43:44;;;;;;;2.85;0.93;;;;;;;22.89;45.57;101071.72;5022991;28;20065;-86
2023/07/04 08:46:13;;;;;;;1.65;1.10;;;;;;;22.98;45.64;101069.75;5020149;28;20411;-85
2023/07/04 08:48:40;;;;;;;2.10;1.13;;;;;;;22.98;45.31;101067.09;4999358;28;20048;-85
2023/07/04 08:51:08;;;;;;;2.13;1.30;;;;;;;23.06;45.59;101069.59;5029559;28;20108;-85
2023/07/04 08:53:36;;;;;;;2.08;1.40;;;;;;;23.01;45.32;101084.47;4997539;28;20065;-83
2023/07/04 08:56:34;;;;;;;4.85;1.45;;;;;;;22.97;45.48;101088.50;5026302;28;20037;-82
2023/07/04 08:59:37;;;;;;;1.55;1.00;;;;;;;23.03;45.46;101096.53;4994440;28;20033;-81
2023/07/04 09:02:32;;;;;;;3.90;1.15;;;;;;;23.12;45.22;101084.72;5035492;28;20041;-86
2023/07/04 09:05:10;;;;;;;2.47;0.88;;;;;;;23.25;45.22;101101.78;5029615;28;20037;-84
2023/07/04 09:07:59;;;;;;;3.00;0.90;;;;;;;23.31;45.19;101100.97;5001322;28;20029;-83
2023/07/04 09:10:33;;;;;;;2.42;1.10;;;;;;;23.34;45.13;101092.59;5031700;28;20033;-84
2023/07/04 09:13:01;;;;;;;0.80;0.80;;;;;;;23.32;44.85;101095.47;5002663;28;20041;-85
2023/07/04 09:15:38;;;;;;;4.78;1.50;;;;;;;23.29;44.98;101085.22;5029788;28;20041;-83
2023/07/04 09:18:28;;;;;;;2.08;1.35;;;;;;;23.42;44.83;101082.66;4996636;28;20045;-86
2023/07/04 09:21:05;;;;;;;2.88;1.02;;;;;;;23.50;44.73;101095.75;5018812;28;20041;-83
2023/07/04 09:23:31;;;;;;;1.15;1.00;;;;;;;23.54;44.71;101088.22;5006541;28;20033;-84
2023/07/04 09:25:58;;;;;;;2.03;1.05;;;;;;;23.63;44.52;101099.53;5016210;28;20061;-86
2023/07/04 09:28:25;;;;;;;1.65;1.15;;;;;;;23.67;44.35;101093.63;5028928;28;20037;-83
2023/07/04 09:30:53;;;;;;;1.73;1.33;;;;;;;23.71;44.38;101094.88;5030835;28;20037;-84
2023/07/04 09:33:28;;;;;;;1.88;1.20;;;;;;;23.64;44.62;101091.34;5032289;28;20059;-88
2023/07/04 09:36:01;;;;;;;4.35;1.30;;;;;;;23.63;44.17;101111.00;5050725;28;20037;-89
2023/07/04 09:38:51;;;;;;;3.15;1.50;;;;;;;23.54;44.09;101117.47;5002905;28;20029;-86
2023/07/04 09:41:17;;;;;;;3.92;1.83;;;;;;;23.38;44.01;101105.31;5004549;28;20711;-88
2023/07/04 09:43:43;;;;;;;4.70;1.30;;;;;;;23.40;44.11;101110.44;5028110;28;20049;-85
2023/07/04 09:46:30;;;;;;;6.95;1.90;;;;;;;23.38;43.86;101099.19;4992971;28;20318;-81
2023/07/04 09:49:19;;;;;;;3.15;1.55;;;;;;;23.37;43.88;101110.84;5029240;28;20042;-81
2023/07/04 09:51:58;;;;;;;2.88;1.40;;;;;;;23.32;44.06;101099.97;5016951;28;20041;-84
2023/07/04 09:54:24;;;;;;;3.55;1.52;;;;;;;23.33;43.90;101093.63;5031989;28;20057;-84
2023/07/04 09:56:49;;;;;;;4.57;1.80;;;;;;;23.41;43.86;101098.78;4978257;28;20030;-83
2023/07/04 09:59:17;;;;;;;5.15;2.08;;;;;;;23.43;43.99;101107.38;5030180;28;20041;-83
2023/07/04 10:01:48;;;;;;;2.35;1.67;;;;;;;23.38;44.08;101108.00;5017204;28;20029;-85
2023/07/04 10:04:27;;;;;;;3.50;2.55;;;;;;;23.44;43.87;101117.00;5035392;28;20037;-85
2023/07/04 10:06:54;;;;;;;1.95;1.20;;;;;;;23.45;43.64;101115.97;5006729;28;20047;-83
2023/07/04 10:09:20;;;;;;;1.95;1.23;;;;;;;23.43;44.01;101126.81;5020846;28;20033;-83
2023/07/04 10:11:51;;;;;;;2.15;1.33;;;;;;;23.39;43.80;101114.13;5032166;28;20061;-83
2023/07/04 10:14:32;;;;;;;3.10;1.55;;;;;;;23.42;44.04;101103.09;5003823;28;20457;-84
2023/07/04 10:17:08;;;;;;;3.47;1.48;;;;;;;23.42;44.03;101116.38;5046569;28;20041;-84
2023/07/04 10:19:40;;;;;;;2.58;1.38;;;;;;;23.35;43.80;101116.34;5011763;28;20040;-84
2023/07/04 10:22:05;;;;;;;3.72;1.58;;;;;;;23.38;43.90;101120.47;5035335;28;20072;-84
2023/07/04 10:24:33;;;;;;;2.65;1.65;;;;;;;23.37;44.03;101124.13;5001337;28;20050;-83
2023/07/04 10:27:02;;;;;;;3.60;1.55;;;;;;;23.41;43.96;101128.84;5023616;28;20593;-84
2023/07/04 10:29:39;;;;;;;2.35;1.70;;;;;;;23.40;43.96;101113.94;5002531;28;20041;-84
2023/07/04 10:32:13;;;;;;;4.55;1.60;;;;;;;23.40;43.81;101116.59;5041806;28;20122;-83
2023/07/04 10:34:40;;;;;;;2.72;1.40;;;;;;;23.38;43.96;101144.38;5023241;28;20036;-78
2023/07/04 10:37:09;;;;;;;2.17;1.33;;;;;;;23.36;44.05;101127.81;5027279;28;20476;-78
2023/07/04 10:39:38;;;;;;;3.13;1.70;;;;;;;23.37;44.06;101129.44;5005575;28;20536;-78
2023/07/04 10:42:17;;;;;;;1.80;1.40;;;;;;;23.38;44.00;101120.47;5029840;28;20045;-79
2023/07/04 10:44:48;;;;;;;1.85;1.15;;;;;;;23.37;43.81;101126.78;4988256;28;20061;-79
2023/07/04 10:47:23;;;;;;;2.63;1.55;;;;;;;23.32;43.94;101114.06;5049908;28;20068;-79
2023/07/04 10:49:54;;;;;;;2.42;1.60;;;;;;;23.28;43.82;101112.00;5001250;28;20033;-79
2023/07/04 10:52:30;;;;;;;3.42;1.40;;;;;;;23.29;43.87;101111.81;5033025;28;20041;-78
2023/07/04 10:54:57;;;;;;;2.83;1.38;;;;;;;23.31;44.00;101125.72;5001425;28;20029;-80
2023/07/04 10:57:34;;;;;;;3.80;1.45;;;;;;;23.32;44.08;101132.66;5026324;28;20045;-78
2023/07/04 11:00:10;;;;;;;2.78;1.67;;;;;;;23.25;44.03;101133.66;5015090;28;20044;-78
2023/07/04 11:02:44;;;;;;;2.47;1.30;;;;;;;23.31;44.18;101136.34;5029676;28;20045;-76
2023/07/04 11:05:15;;;;;;;2.95;1.25;;;;;;;23.32;43.90;101145.13;4999362;28;20044;-78
2023/07/04 11:07:44;;;;;;;3.47;1.40;;;;;;;23.34;43.77;101143.09;5036756;28;20052;-78
2023/07/04 11:10:13;;;;;;;1.80;1.40;;;;;;;23.25;44.05;101133.66;5007286;28;21040;-79
2023/07/04 11:12:42;;;;;;;2.92;1.15;;;;;;;23.30;44.07;101147.16;5026912;28;20593;-78
2023/07/04 11:15:22;;;;;;;;;;;;;;;23.30;44.07;101150.66;5004102;28;20053;-78
2023/07/04 11:17:49;;;;;;;2.72;1.40;;;;;;;23.22;43.90;101140.19;5027369;28;19925;-78
2023/07/04 11:20:22;;;;;;;2.70;1.60;;;;;;;23.30;43.83;101148.00;5033071;28;20531;-78
2023/07/04 11:22:51;;;;;;;2.38;1.35;;;;;;;23.33;43.87;101146.78;5003167;28;20033;-78
2023/07/04 11:25:33;;;;;;;3.08;1.30;;;;;;;23.32;43.76;101137.97;5033575;28;20093;-79
2023/07/04 11:28:41;;;;;;;1.73;1.08;;;;;;;23.31;43.73;101146.97;5008199;28;20106;-78
2023/07/04 11:31:18;;;;;;;2.08;1.10;;;;;;;23.30;43.80;101145.34;5028578;28;20152;-78
2023/07/04 11:33:53;;;;;;;2.50;1.48;;;;;;;23.32;43.76;101145.94;5005446;28;20140;-79
2023/07/04 11:36:40;;;;;;;2.15;1.38;;;;;;;23.33;43.79;101154.75;5039147;28;20022;-78
2023/07/04 11:39:46;;;;;;;2.92;1.42;;;;;;;23.32;43.71;101145.13;4996617;28;20017;-78
2023/07/04 11:42:30;;;;;;;1.40;1.10;;;;;;;23.33;43.71;101160.88;5024497;28;20061;-78
2023/07/04 11:45:05;;;;;;;3.58;1.80;;;;;;;23.26;43.78;101154.72;5000448;28;20549;-78
2023/07/04 11:47:43;;;;;;;1.90;1.10;;;;;;;23.29;43.91;101156.16;5040397;28;20156;-78
2023/07/04 11:50:32;;;;;;;2.78;1.15;;;;;;;23.29;43.77;101164.13;4993849;28;20041;-77
2023/07/04 11:53:01;;;;;;;2.88;1.30;;;;;;;23.21;43.72;101168.59;5031910;28;20041;-79